x

Halibut Bank (46146) Wave Buoy

10:00 - Sat 30th Apr 2016 All times are PDT. -7 hours from GMT.

  • Sig Wave height 0.7ft
  • Peak Period 2s
  • Wind
    9mph
  • Sea Temp 56°f
  • Ar Temp 58°f
  • Sea Pressure 1026.1mb
  • Halibut Bank
  • Halibut Bank

More Historic Weather Station data

Upgrade to MSW Pro to gain access to the past 30 days of data for over 8000 Wavebouys and Weather Stations around the globe.

Join Pro

Comparision Forecast

View Surf forecast
   
Sáb 04/30 10:00 0.7ft 2s 9
mph
1026.1mb 56f 58f
9:00 0.7ft 2s 9
mph
1026.1mb 57f 58f
8:00 0.7ft 2s 11 13 mph 1026mb 57f 58f
7:00 1ft 2s 11 13 mph 1026.2mb 57f 58f
6:00 0.7ft 2s 11 13 mph 1026.5mb 57f 58f
5:00 0.7ft 6s 11 13 mph 1027.1mb 57f 58f
3:00 0.7ft 3s 4 7 mph 1027.7mb 57f 56f
2:00 0.7ft 2s 7 9 mph 1028.3mb 57f 55f
1:00 0.7ft 4s 7
mph
1028.7mb 57f 54f
12:00 1ft 4s 4 7 mph 1029mb 56f 53f
11:00 1ft 3s 4 7 mph 1029.1mb 55f 57f
10:00 1.3ft 3s 9 11 mph 1029mb 55f 58f
9:00 1.6ft 3s 9 11 mph 1028.8mb 55f 57f
8:00 1.6ft 3s 9 11 mph 1028.6mb 55f 60f
7:00 2ft 4s 13 18 mph 1028.1mb 55f 55f
6:00 1.6ft 4s 13
mph
1027.3mb 55f 59f
5:00 1.6ft 4s 9 11 mph 1026.6mb 55f 58f
4:00 2ft 4s 9 13 mph 1026mb 55f 55f
3:00 1.6ft 4s 13 18 mph 1025.2mb 55f 54f
2:00 2.5ft 4s 16 18 mph 1024.4mb 55f 54f
1:00 2.5ft 4s 13 16 mph 1023.9mb 55f 54f
12:00 2.5ft 4s 22 27 mph 1022.9mb 55f 55f
Sex 04/29 11:00 2.5ft 4s 18 22 mph 1022.3mb 55f 56f
10:00 2.5ft 4s 20 25 mph 1021.8mb 55f 56f
9:00 2ft 4s 16 18 mph 1021.2mb 55f 57f
8:00 2ft 4s 13 16 mph 1020.4mb 55f 57f
7:00 2ft 4s 13 18 mph 1020mb 55f 59f
6:00 2ft 4s 18 20 mph 1019.6mb 55f 59f
5:00 2ft 4s 18 20 mph 1019.3mb 56f 58f
4:00 2ft 4s 18 20 mph 1019mb 56f 58f
3:00 2.5ft 4s 20 25 mph 1018.8mb 56f 57f
2:00 2.5ft 4s 20 25 mph 1018.8mb 55f 56f
1:00 3.5ft 4s 20 25 mph 1018.5mb 56f 55f
12:00 3.5ft 4s 25 29 mph 1018.3mb 55f 55f
11:00 3.5ft 4s 25 29 mph 1018.3mb 55f 54f
10:00 3ft 4s 22 27 mph 1018.2mb 55f 54f
9:00 3ft 4s 25 27 mph 1018.1mb 55f 54f
8:00 2.5ft 4s 22 27 mph 1017.7mb 55f 53f
7:00 2.5ft 4s 20 25 mph 1017.5mb 55f 54f
6:00 2.5ft 4s 20 25 mph 1017.3mb 55f 54f
5:00 2.5ft 4s 22 25 mph 1017.1mb 55f 54f
4:00 2.5ft 4s 20 25 mph 1017.2mb 55f 55f
3:00 2.5ft 4s 18 22 mph 1017.3mb 56f 55f
2:00 2.5ft 4s 20 25 mph 1017.1mb 56f 55f
1:00 2ft 4s 18 20 mph 1017.3mb 56f 55f
12:00 1.6ft 3s 16 18 mph 1017.3mb 56f 56f
Qui 04/28 11:00 1ft 2s 18 22 mph 1017mb 56f 56f
10:00 0.7ft 3s 13 18 mph 1017.1mb 56f 58f
9:00 0.7ft 3s 7 9 mph 1017.2mb 56f 58f
8:00 0.7ft 3s 4 7 mph 1017mb 56f 57f
7:00 1ft 3s 2
mph
1017.3mb 57f 57f
6:00 1ft 3s 4
mph
1017.5mb 56f 57f
5:00 1ft 3s 4
mph
1017.9mb 56f 57f
4:00 1ft 3s 7
mph
1018.2mb 56f 57f
3:00 1ft 3s 9 11 mph 1018.1mb 56f 56f
2:00 1.3ft 3s 13
mph
1018.2mb 56f 56f
1:00 1ft 3s 13 16 mph 1018.2mb 56f 55f
12:00 0.7ft 2s 11 13 mph 1018.4mb 56f 55f
11:00 0.7ft 3s 9 11 mph 1018.6mb 56f 55f
10:00 0.7ft 3s 4
mph
1018.8mb 55f 55f
9:00 0.7ft 3s 2 4 mph 1018.8mb 55f 55f
8:00 0.7ft 3s 7 9 mph 1018.9mb 55f 54f
7:00 0.7ft 3s 4 7 mph 1018.8mb 55f 54f
6:00 0.7ft 3s 7 9 mph 1018.4mb 55f 54f
5:00 0.7ft 2s 7 9 mph 1018.1mb 55f 54f
4:00 0.3ft 2s 2 4 mph 1017.6mb 55f 54f
3:00 0.3ft 2s 4 7 mph 1017.4mb 55f 55f
2:00 0.7ft 2s 2
mph
1017.3mb 55f 55f
1:00 0.7ft 2s  -  2 mph 1017mb 55f 55f
12:00 0.7ft 2s 7 9 mph 1016.5mb 55f 56f
Qua 04/27 11:00 1ft 2s 9
mph
1016.3mb 55f 56f
10:00 1ft 3s 11
mph
1016.2mb 55f 57f
9:00 1ft 3s 11 13 mph 1016.1mb 55f 56f
8:00 1ft 3s 11 13 mph 1015.9mb 55f 56f
7:00 1.3ft 3s 13 16 mph 1015.7mb 56f 56f
6:00 1.3ft 3s 11 13 mph 1015.9mb 56f 57f
5:00 1.6ft 3s 13 18 mph 1015.9mb 56f 56f
4:00 1.6ft 3s 16 18 mph 1016.2mb 55f 56f
3:00 2ft 4s 16 18 mph 1016.2mb 55f 55f
2:00 2.5ft 4s 18 20 mph 1016.6mb 55f 55f
1:00 2.5ft 4s 20 22 mph 1016.5mb 55f 53f
12:00 2.5ft 4s 20 22 mph 1016.4mb 55f 53f
11:00 2.5ft 3s 18 22 mph 1016.2mb 55f 52f
10:00 2.5ft 3s 18 22 mph 1016.3mb 55f 52f
9:00 2.5ft 4s 18 22 mph 1016mb 54f 52f
8:00 2ft 3s 18 20 mph 1016.1mb 54f 52f
7:00 1.6ft 4s 16 20 mph 1015.7mb 54f 52f